Time;durP1;ratioP1;P1;durP2;ratioP2;P2;SDS_P1;SDS_P2;PMS_P1;PMS_P2;Temp;Humidity;BMP_temperature;BMP_pressure;BME280_temperature;BME280_humidity;BME280_pressure;Samples;Min_cycle;Max_cycle;Signal;HPM_P1;HPM_P2
2021/05/09 00:01:47;;;;;;;27.80;25.90;;;;;;;7.36;100.00;101829.88;5096673;28;20044;-80
2021/05/09 00:04:13;;;;;;;27.63;25.75;;;;;;;7.42;100.00;101830.06;5096371;28;20044;-81
2021/05/09 00:06:39;;;;;;;28.95;26.85;;;;;;;7.31;100.00;101825.84;5096353;28;20106;-80
2021/05/09 00:09:06;;;;;;;29.42;27.55;;;;;;;7.49;100.00;101844.28;5096227;28;20070;-80
2021/05/09 00:11:33;;;;;;;37.83;35.15;;;;;;;7.51;100.00;101838.88;5096025;28;20561;-80
2021/05/09 00:14:00;;;;;;;33.85;31.55;;;;;;;6.86;100.00;101842.75;5096609;28;20396;-81
2021/05/09 00:16:26;;;;;;;31.67;29.48;;;;;;;6.55;100.00;101846.81;5096192;28;20056;-80
2021/05/09 00:18:53;;;;;;;31.88;29.48;;;;;;;6.68;100.00;101843.78;5096330;28;20078;-80
2021/05/09 00:21:20;;;;;;;28.38;26.38;;;;;;;6.54;100.00;101853.91;5096516;28;20051;-80
2021/05/09 00:23:48;;;;;;;28.17;26.10;;;;;;;6.76;100.00;101847.31;5095872;28;20519;-81
2021/05/09 00:26:14;;;;;;;27.77;25.88;;;;;;;6.88;100.00;101851.34;5096397;28;20094;-80
2021/05/09 00:28:41;;;;;;;26.45;24.38;;;;;;;6.26;100.00;101852.28;5095883;28;20041;-80
2021/05/09 00:31:14;;;;;;;26.05;24.08;;;;;;;6.36;100.00;101864.44;5095835;28;20060;-80
2021/05/09 00:33:41;;;;;;;27.42;25.42;;;;;;;5.85;100.00;101859.75;5096847;28;20404;-80
2021/05/09 00:36:08;;;;;;;27.95;25.73;;;;;;;5.96;100.00;101863.03;5096358;28;20374;-80
2021/05/09 00:38:42;;;;;;;28.17;25.98;;;;;;;6.35;100.00;101881.25;5095954;28;20044;-80
2021/05/09 00:41:10;;;;;;;27.38;25.23;;;;;;;6.15;100.00;101882.38;5095969;28;20044;-80
2021/05/09 00:43:36;;;;;;;29.20;27.10;;;;;;;6.41;100.00;101883.31;5095621;28;20052;-80
2021/05/09 00:46:02;;;;;;;27.48;25.50;;;;;;;6.43;100.00;101880.50;5095658;28;20047;-80
2021/05/09 00:48:29;;;;;;;28.35;26.50;;;;;;;6.35;100.00;101886.53;5095813;28;20051;-81
2021/05/09 00:50:57;;;;;;;29.52;27.63;;;;;;;6.38;100.00;101882.75;5096719;28;20044;-80
2021/05/09 00:53:25;;;;;;;32.55;30.30;;;;;;;6.33;100.00;101883.22;5095975;28;20051;-80
2021/05/09 00:55:53;;;;;;;29.95;27.95;;;;;;;6.09;100.00;101883.78;5095729;28;20210;-80
2021/05/09 00:58:22;;;;;;;27.67;25.70;;;;;;;5.95;100.00;101885.09;5096267;28;20067;-81
2021/05/09 01:00:50;;;;;;;30.55;28.45;;;;;;;5.56;100.00;101887.06;5095612;28;20369;-81
2021/05/09 01:03:19;;;;;;;29.10;26.88;;;;;;;5.54;100.00;101889.03;5095204;28;20101;-80
2021/05/09 01:05:46;;;;;;;27.75;25.85;;;;;;;5.26;100.00;101890.75;5095146;28;20453;-80
2021/05/09 01:08:12;;;;;;;28.75;26.65;;;;;;;5.28;100.00;101888.81;5095504;28;20093;-80
2021/05/09 01:10:39;;;;;;;29.08;26.63;;;;;;;5.12;100.00;101899.94;5095742;28;20109;-80
2021/05/09 01:13:05;;;;;;;29.00;26.85;;;;;;;5.04;100.00;101905.06;5095352;28;20048;-80
2021/05/09 01:15:33;;;;;;;27.60;25.60;;;;;;;4.89;100.00;101898.56;5095254;28;20052;-80
2021/05/09 01:18:00;;;;;;;26.67;24.67;;;;;;;5.40;100.00;101900.00;5095130;28;20047;-78
2021/05/09 01:20:37;;;;;;;27.27;25.10;;;;;;;5.28;100.00;101896.72;5095192;28;20048;-80
2021/05/09 01:23:05;;;;;;;27.08;24.85;;;;;;;4.99;100.00;101905.50;5095088;28;20059;-80
2021/05/09 01:25:32;;;;;;;29.73;27.27;;;;;;;5.36;100.00;101910.00;5094728;28;20480;-80
2021/05/09 01:27:59;;;;;;;28.27;25.88;;;;;;;5.22;100.00;101908.66;5095011;28;20056;-80
2021/05/09 01:30:26;;;;;;;28.60;26.30;;;;;;;5.48;100.00;101908.88;5094436;28;20055;-80
2021/05/09 01:32:52;;;;;;;26.05;23.90;;;;;;;5.25;100.00;101915.44;5094603;28;20076;-80
2021/05/09 01:35:19;;;;;;;28.52;26.35;;;;;;;5.56;100.00;101913.41;5094735;28;20048;-80
2021/05/09 01:37:46;;;;;;;27.08;24.88;;;;;;;5.57;100.00;101922.13;5094916;28;20419;-80
2021/05/09 01:40:13;;;;;;;27.38;25.35;;;;;;;5.17;100.00;101929.31;5094460;28;20048;-80
2021/05/09 01:42:40;;;;;;;27.52;25.58;;;;;;;5.33;100.00;101925.28;5094735;28;20059;-80
2021/05/09 01:45:09;;;;;;;28.42;26.50;;;;;;;5.21;100.00;101935.97;5094812;28;20131;-80
2021/05/09 01:47:36;;;;;;;29.60;27.40;;;;;;;5.22;100.00;101934.97;5094709;28;20044;-79
2021/05/09 01:50:07;;;;;;;28.67;26.58;;;;;;;5.31;100.00;101932.47;5094838;28;20382;-80
2021/05/09 01:52:33;;;;;;;27.35;25.13;;;;;;;5.46;100.00;101934.53;5094202;28;20469;-81
2021/05/09 01:55:00;;;;;;;28.00;25.80;;;;;;;5.28;100.00;101944.97;5094943;28;20062;-80
2021/05/09 01:57:28;;;;;;;28.20;25.85;;;;;;;5.38;100.00;101944.09;5094726;28;20071;-80
2021/05/09 01:59:54;;;;;;;27.77;25.77;;;;;;;5.64;100.00;101944.34;5094376;28;20105;-80
2021/05/09 02:02:27;;;;;;;25.75;23.80;;;;;;;5.14;100.00;101955.91;5080130;28;20045;-80
2021/05/09 02:04:53;;;;;;;26.83;24.63;;;;;;;5.08;100.00;101964.38;5074199;28;20057;-80
2021/05/09 02:07:20;;;;;;;26.13;24.10;;;;;;;4.66;100.00;101964.66;5074011;28;20443;-80
2021/05/09 02:09:46;;;;;;;25.25;23.55;;;;;;;5.23;100.00;101964.78;5073827;28;20052;-80
2021/05/09 02:12:13;;;;;;;26.95;25.05;;;;;;;5.20;100.00;101970.34;5089516;28;20086;-80
2021/05/09 02:14:40;;;;;;;24.33;22.45;;;;;;;4.85;100.00;101974.38;5094442;28;20059;-80
2021/05/09 02:17:06;;;;;;;25.80;23.90;;;;;;;4.80;100.00;101969.50;5094055;28;20117;-80
2021/05/09 02:19:33;;;;;;;24.90;22.90;;;;;;;4.95;100.00;101963.84;5094596;28;20051;-80
2021/05/09 02:21:59;;;;;;;30.77;28.48;;;;;;;4.99;100.00;101971.34;5094479;28;20476;-80
2021/05/09 02:24:25;;;;;;;25.55;23.55;;;;;;;4.88;100.00;101975.91;5094400;28;20062;-80
2021/05/09 02:26:51;;;;;;;29.35;27.15;;;;;;;5.08;100.00;101972.28;5094097;28;20138;-81
2021/05/09 02:29:19;;;;;;;27.17;24.83;;;;;;;5.07;100.00;101975.06;5094190;28;20055;-81
2021/05/09 02:31:45;;;;;;;29.95;27.23;;;;;;;5.17;100.00;101989.88;5094326;28;20116;-81
2021/05/09 02:34:11;;;;;;;26.02;24.13;;;;;;;4.88;100.00;101987.25;5094065;28;20051;-80
2021/05/09 02:36:37;;;;;;;28.40;26.08;;;;;;;4.85;100.00;101994.59;5094097;28;20055;-80
2021/05/09 02:39:04;;;;;;;31.40;28.80;;;;;;;4.82;100.00;101991.28;5093982;28;20052;-81
2021/05/09 02:41:30;;;;;;;32.08;29.73;;;;;;;4.81;100.00;101996.66;5093003;28;20060;-80
2021/05/09 02:43:57;;;;;;;28.35;26.15;;;;;;;4.53;100.00;101991.22;5093878;28;20442;-80
2021/05/09 02:46:24;;;;;;;29.98;27.77;;;;;;;4.65;100.00;102005.09;5093727;28;20389;-80
2021/05/09 02:48:50;;;;;;;29.42;26.83;;;;;;;4.65;100.00;102017.41;5093507;28;20044;-80
2021/05/09 02:51:18;;;;;;;25.63;23.52;;;;;;;4.45;100.00;102014.75;5093539;28;20059;-80
2021/05/09 02:53:44;;;;;;;29.23;26.85;;;;;;;4.59;100.00;102016.97;5093817;28;20139;-80
2021/05/09 02:56:11;;;;;;;28.52;26.30;;;;;;;4.17;100.00;102020.72;5093663;28;20116;-80
2021/05/09 02:58:37;;;;;;;25.50;23.50;;;;;;;4.43;100.00;102029.81;5093723;28;20051;-80
2021/05/09 03:01:03;;;;;;;27.02;24.67;;;;;;;4.68;100.00;102027.69;5093265;28;20090;-80
2021/05/09 03:03:30;;;;;;;23.63;21.83;;;;;;;4.17;100.00;102029.44;5093564;28;20052;-80
2021/05/09 03:05:57;;;;;;;25.33;23.48;;;;;;;4.47;100.00;102035.66;5093489;28;20059;-80
2021/05/09 03:08:23;;;;;;;25.83;23.67;;;;;;;4.46;100.00;102032.19;5093422;28;20499;-80
2021/05/09 03:10:49;;;;;;;26.80;24.17;;;;;;;4.57;100.00;102033.91;5093458;28;20052;-79
2021/05/09 03:13:15;;;;;;;26.15;24.25;;;;;;;4.75;100.00;102040.19;5093620;28;20048;-80
2021/05/09 03:15:42;;;;;;;26.50;24.63;;;;;;;4.49;100.00;102045.09;5093349;28;20048;-80
2021/05/09 03:18:08;;;;;;;27.50;25.30;;;;;;;4.24;100.00;102042.94;5093516;28;20048;-80
2021/05/09 03:20:37;;;;;;;27.75;25.73;;;;;;;4.25;100.00;102042.78;5093572;28;20052;-80
2021/05/09 03:23:03;;;;;;;28.17;26.25;;;;;;;3.96;100.00;102042.63;5093645;28;20468;-80
2021/05/09 03:25:29;;;;;;;26.77;24.67;;;;;;;4.40;100.00;102048.50;5093643;28;20048;-81
2021/05/09 03:27:56;;;;;;;26.55;24.55;;;;;;;4.34;100.00;102052.50;5093549;28;20465;-80
2021/05/09 03:30:22;;;;;;;26.00;24.13;;;;;;;4.51;100.00;102058.13;5093196;28;20603;-80
2021/05/09 03:32:48;;;;;;;25.30;23.60;;;;;;;4.74;100.00;102059.56;5093355;28;20101;-80
2021/05/09 03:35:15;;;;;;;24.77;23.15;;;;;;;4.76;100.00;102062.88;5093202;28;20491;-80
2021/05/09 03:37:42;;;;;;;26.48;24.48;;;;;;;4.74;100.00;102064.00;5093302;28;20051;-80
2021/05/09 03:40:09;;;;;;;27.52;25.40;;;;;;;5.15;100.00;102065.59;5093361;28;20098;-80
2021/05/09 03:42:36;;;;;;;26.40;24.50;;;;;;;5.26;100.00;102075.16;5093346;28;20048;-80
2021/05/09 03:45:03;;;;;;;24.58;22.88;;;;;;;5.19;100.00;102077.50;5093326;28;20113;-80
2021/05/09 03:47:29;;;;;;;24.38;22.67;;;;;;;5.58;100.00;102081.97;5093129;28;20055;-80
2021/05/09 03:49:57;;;;;;;23.90;22.15;;;;;;;5.59;100.00;102084.44;5093316;28;20044;-80
2021/05/09 03:52:24;;;;;;;26.17;24.20;;;;;;;5.55;100.00;102087.50;5094068;28;20044;-80
2021/05/09 03:54:51;;;;;;;25.27;23.58;;;;;;;5.71;100.00;102087.75;5096537;28;20120;-80
2021/05/09 03:57:17;;;;;;;23.08;21.23;;;;;;;5.89;100.00;102085.25;5097140;28;20048;-80
2021/05/09 03:59:44;;;;;;;24.15;22.45;;;;;;;5.81;100.00;102078.06;5096410;28;20055;-80
2021/05/09 04:02:10;;;;;;;26.20;24.10;;;;;;;6.11;100.00;102089.38;5096620;28;20048;-80
2021/05/09 04:04:36;;;;;;;23.92;22.23;;;;;;;5.98;100.00;102094.97;5096376;28;20110;-80
2021/05/09 04:07:03;;;;;;;25.38;23.58;;;;;;;6.22;100.00;102097.13;5096627;28;20048;-80
2021/05/09 04:09:29;;;;;;;23.77;22.25;;;;;;;5.95;100.00;102109.28;5096246;28;20063;-80
2021/05/09 04:11:58;;;;;;;25.02;23.27;;;;;;;6.45;100.00;102117.91;5096145;28;20105;-80
2021/05/09 04:14:25;;;;;;;25.25;23.55;;;;;;;6.60;100.00;102124.38;5096494;28;20048;-80
2021/05/09 04:16:51;;;;;;;25.92;24.08;;;;;;;6.64;100.00;102115.19;5096406;28;20051;-79
2021/05/09 04:19:17;;;;;;;26.10;24.30;;;;;;;6.60;100.00;102111.19;5096406;28;20365;-80
2021/05/09 04:21:44;;;;;;;25.88;23.98;;;;;;;6.89;100.00;102118.94;5096417;28;20040;-80
2021/05/09 04:24:10;;;;;;;25.85;23.90;;;;;;;7.12;100.00;102129.94;5096219;28;20048;-80
2021/05/09 04:26:36;;;;;;;25.13;23.48;;;;;;;7.29;100.00;102131.78;5096082;28;20109;-80
2021/05/09 04:29:04;;;;;;;26.95;24.95;;;;;;;7.41;100.00;102136.81;5096352;28;20059;-80
2021/05/09 04:31:31;;;;;;;27.98;25.77;;;;;;;7.57;100.00;102132.53;5096197;28;20125;-79
2021/05/09 04:33:57;;;;;;;25.33;23.42;;;;;;;7.65;100.00;102131.75;5095895;28;20044;-80
2021/05/09 04:36:23;;;;;;;28.23;26.42;;;;;;;7.83;100.00;102129.09;5096014;28;20515;-80
2021/05/09 04:38:50;;;;;;;27.35;25.70;;;;;;;7.98;100.00;102137.31;5095946;28;20488;-79
2021/05/09 04:41:16;;;;;;;25.30;23.70;;;;;;;8.27;100.00;102137.88;5095570;28;20059;-80
2021/05/09 04:43:43;;;;;;;24.92;23.42;;;;;;;8.36;100.00;102133.44;5095588;28;20101;-81
2021/05/09 04:46:10;;;;;;;26.38;24.60;;;;;;;8.48;100.00;102134.03;5095824;28;20134;-79
2021/05/09 04:48:37;;;;;;;26.60;24.80;;;;;;;8.59;100.00;102135.56;5095527;28;20481;-80
2021/05/09 04:51:03;;;;;;;25.45;23.85;;;;;;;8.66;100.00;102131.31;5095755;28;20056;-80
2021/05/09 04:53:31;;;;;;;25.83;24.33;;;;;;;8.79;100.00;102129.06;5095475;28;20044;-80
2021/05/09 04:56:00;;;;;;;26.10;24.35;;;;;;;8.97;100.00;102142.19;5095622;28;20040;-80
2021/05/09 04:58:27;;;;;;;25.40;23.90;;;;;;;9.06;100.00;102151.84;5095161;28;20059;-80
2021/05/09 05:00:54;;;;;;;25.58;24.08;;;;;;;9.17;100.00;102150.72;5095510;28;20059;-80
2021/05/09 05:03:21;;;;;;;23.10;21.80;;;;;;;9.18;100.00;102141.78;5095107;28;20048;-80
2021/05/09 05:05:48;;;;;;;25.90;23.92;;;;;;;9.33;100.00;102145.44;5095010;28;20048;-80
2021/05/09 05:08:14;;;;;;;25.42;23.75;;;;;;;9.62;100.00;102147.66;5095437;28;20056;-80
2021/05/09 05:10:41;;;;;;;25.50;23.90;;;;;;;9.71;100.00;102140.50;5095149;28;20055;-80
2021/05/09 05:13:17;;;;;;;24.85;23.45;;;;;;;10.15;100.00;102142.81;5095398;28;20063;-80
2021/05/09 05:15:43;;;;;;;23.30;22.10;;;;;;;10.56;100.00;102134.78;5095254;28;20098;-80
2021/05/09 05:18:09;;;;;;;26.45;24.77;;;;;;;10.77;100.00;102142.16;5094882;28;20143;-79
2021/05/09 05:20:37;;;;;;;26.13;24.65;;;;;;;10.97;100.00;102140.75;5095114;28;20055;-80
2021/05/09 05:23:03;;;;;;;23.70;22.30;;;;;;;11.08;100.00;102134.22;5094958;28;20062;-79
2021/05/09 05:25:29;;;;;;;24.00;22.70;;;;;;;11.20;100.00;102132.00;5094975;28;20456;-80
2021/05/09 05:27:55;;;;;;;22.92;21.73;;;;;;;11.19;100.00;102135.66;5095063;28;20183;-80
2021/05/09 05:30:22;;;;;;;23.73;22.23;;;;;;;11.25;100.00;102142.91;5094663;28;20051;-80
2021/05/09 05:32:49;;;;;;;22.65;21.15;;;;;;;11.44;100.00;102142.47;5094825;28;20048;-80
2021/05/09 05:35:15;;;;;;;23.20;22.00;;;;;;;11.60;100.00;102144.19;5094618;28;20051;-80
2021/05/09 05:37:43;;;;;;;23.13;21.73;;;;;;;11.97;100.00;102141.75;5094678;28;20044;-80
2021/05/09 05:40:10;;;;;;;24.38;22.88;;;;;;;11.87;100.00;102142.84;5094658;28;20055;-80
2021/05/09 05:42:37;;;;;;;23.77;22.55;;;;;;;11.81;100.00;102148.84;5094850;28;20408;-80
2021/05/09 05:45:05;;;;;;;22.67;21.30;;;;;;;12.11;100.00;102155.09;5094769;28;20040;-80
2021/05/09 05:47:31;;;;;;;23.42;22.13;;;;;;;12.03;100.00;102152.50;5094326;28;20048;-80
2021/05/09 05:49:58;;;;;;;22.30;21.00;;;;;;;12.17;100.00;102150.91;5094788;28;20044;-80
2021/05/09 05:52:24;;;;;;;22.88;21.35;;;;;;;12.25;100.00;102158.78;5094370;28;20051;-80
2021/05/09 05:54:51;;;;;;;22.88;21.38;;;;;;;12.51;100.00;102149.53;5094518;28;20484;-80
2021/05/09 05:57:18;;;;;;;23.45;21.95;;;;;;;12.50;100.00;102155.91;5094567;28;20040;-81
2021/05/09 05:59:45;;;;;;;22.98;21.65;;;;;;;12.57;100.00;102164.81;5094145;28;20040;-80
2021/05/09 06:02:11;;;;;;;23.60;22.20;;;;;;;12.59;100.00;102168.13;5094352;28;20186;-81
2021/05/09 06:04:39;;;;;;;22.98;21.38;;;;;;;12.66;100.00;102150.38;5094410;28;20101;-80
2021/05/09 06:07:06;;;;;;;22.80;21.30;;;;;;;12.84;100.00;102149.97;5094396;28;20044;-80
2021/05/09 06:09:32;;;;;;;23.95;22.08;;;;;;;13.06;100.00;102150.84;5094158;28;20082;-80
2021/05/09 06:11:59;;;;;;;23.80;22.20;;;;;;;13.06;100.00;102154.34;5093430;28;20063;-79
2021/05/09 06:14:26;;;;;;;23.70;22.20;;;;;;;13.27;100.00;102164.25;5093776;28;20059;-80
2021/05/09 06:16:52;;;;;;;23.42;21.70;;;;;;;13.29;100.00;102162.25;5093020;28;20044;-80
2021/05/09 06:19:18;;;;;;;22.77;21.40;;;;;;;13.70;100.00;102168.78;5093198;28;20040;-80
2021/05/09 06:21:45;;;;;;;23.10;21.60;;;;;;;13.62;100.00;102172.44;5093617;28;20047;-80
2021/05/09 06:24:11;;;;;;;22.83;21.42;;;;;;;13.42;100.00;102163.41;5093128;28;20048;-81
2021/05/09 06:26:37;;;;;;;22.08;20.63;;;;;;;14.01;100.00;102168.47;5093342;28;20055;-81
2021/05/09 06:29:05;;;;;;;22.58;21.25;;;;;;;13.67;100.00;102178.00;5093125;28;20040;-79
2021/05/09 06:31:31;;;;;;;23.02;21.70;;;;;;;13.67;100.00;102175.34;5092888;28;20048;-79
2021/05/09 06:33:58;;;;;;;22.95;21.55;;;;;;;13.68;100.00;102178.88;5093129;28;20506;-79
2021/05/09 06:36:24;;;;;;;23.48;21.98;;;;;;;13.66;100.00;102183.56;5092882;28;20464;-79
2021/05/09 06:38:50;;;;;;;23.20;21.60;;;;;;;13.87;100.00;102170.19;5093053;28;20116;-79
2021/05/09 06:41:18;;;;;;;24.10;22.40;;;;;;;14.14;100.00;102168.56;5092904;28;20577;-79
2021/05/09 06:43:44;;;;;;;23.30;21.90;;;;;;;14.23;100.00;102171.09;5093083;28;20066;-79
2021/05/09 06:46:11;;;;;;;22.83;21.23;;;;;;;14.52;100.00;102181.56;5092649;28;20143;-80
2021/05/09 06:48:37;;;;;;;22.77;21.38;;;;;;;14.78;100.00;102175.56;5092627;28;20423;-79
2021/05/09 06:51:05;;;;;;;23.83;22.42;;;;;;;14.62;100.00;102181.25;5092807;28;20048;-80
2021/05/09 06:53:31;;;;;;;23.73;22.23;;;;;;;14.56;97.17;102174.84;5092665;28;20113;-80
2021/05/09 06:55:58;;;;;;;23.52;22.02;;;;;;;14.49;97.27;102181.94;5092592;28;20048;-80
2021/05/09 06:58:25;;;;;;;22.87;21.33;;;;;;;14.70;93.41;102185.59;5092879;28;20048;-79
2021/05/09 07:00:51;;;;;;;23.50;21.90;;;;;;;14.83;94.95;102181.16;5092511;28;20044;-79
2021/05/09 07:03:18;;;;;;;23.33;21.45;;;;;;;15.16;99.81;102182.28;5092664;28;20048;-80
2021/05/09 07:05:45;;;;;;;21.98;20.67;;;;;;;15.49;92.90;102180.56;5092544;28;20048;-80
2021/05/09 07:08:11;;;;;;;22.33;20.70;;;;;;;16.18;100.00;102191.94;5092496;28;20059;-79
2021/05/09 07:10:37;;;;;;;22.08;20.77;;;;;;;15.65;88.04;102191.91;5069378;28;656564;-80
2021/05/09 07:13:04;;;;;;;22.67;21.15;;;;;;;15.74;77.54;102198.75;5093437;28;20048;-80
2021/05/09 07:15:34;;;;;;;23.63;22.10;;;;;;;16.54;100.00;102199.53;5093616;28;20052;-79
2021/05/09 07:18:06;;;;;;;22.50;21.10;;;;;;;15.70;81.06;102198.34;5093519;28;20098;-80
2021/05/09 07:20:35;;;;;;;22.52;21.02;;;;;;;15.86;79.00;102201.66;5093179;28;20099;-79
2021/05/09 07:23:02;;;;;;;22.05;20.67;;;;;;;15.62;73.94;102206.53;5093171;28;20055;-80
2021/05/09 07:25:29;;;;;;;22.20;20.90;;;;;;;15.50;84.26;102200.94;5093156;28;20044;-79
2021/05/09 07:28:06;;;;;;;21.83;20.27;;;;;;;15.58;69.06;102203.44;5095050;28;20396;-79
2021/05/09 07:30:33;;;;;;;23.25;21.55;;;;;;;15.71;64.16;102200.00;5097299;28;20097;-79
2021/05/09 07:32:59;;;;;;;22.13;20.73;;;;;;;15.80;66.75;102197.94;5097036;28;20454;-80
2021/05/09 07:35:25;;;;;;;21.92;20.52;;;;;;;15.98;66.11;102208.88;5096979;28;20055;-80
2021/05/09 07:37:52;;;;;;;22.83;21.33;;;;;;;16.23;70.86;102216.28;5096995;28;20389;-79
2021/05/09 07:40:19;;;;;;;22.50;21.10;;;;;;;16.33;57.90;102199.78;5097026;28;20105;-79
2021/05/09 07:42:46;;;;;;;23.58;22.23;;;;;;;17.02;76.17;102204.59;5096776;28;20075;-79
2021/05/09 07:45:16;;;;;;;25.65;24.25;;;;;;;16.74;72.32;102196.00;5096970;28;20060;-80
2021/05/09 07:47:43;;;;;;;24.38;22.75;;;;;;;17.19;65.21;102196.88;5096988;28;20075;-79
2021/05/09 07:50:10;;;;;;;23.52;22.23;;;;;;;17.02;99.08;102207.28;5097050;28;20044;-79
2021/05/09 07:52:37;;;;;;;24.83;23.33;;;;;;;16.77;75.68;102201.78;5096724;28;20461;-79
2021/05/09 07:55:05;;;;;;;23.08;21.77;;;;;;;16.63;61.10;102205.50;5096484;28;20055;-79
2021/05/09 07:57:32;;;;;;;24.60;23.20;;;;;;;16.73;61.20;102205.88;5096956;28;20055;-79
2021/05/09 07:59:58;;;;;;;22.58;21.27;;;;;;;16.62;61.42;102206.56;5096820;28;20047;-79
2021/05/09 08:02:24;;;;;;;22.95;21.45;;;;;;;16.60;58.50;102204.06;5096430;28;20048;-79
2021/05/09 08:04:50;;;;;;;22.40;21.10;;;;;;;16.66;63.27;102203.22;5096462;28;20173;-79
2021/05/09 08:07:17;;;;;;;24.70;23.10;;;;;;;16.75;57.98;102206.50;5096420;28;20452;-80
2021/05/09 08:09:43;;;;;;;24.13;22.20;;;;;;;17.06;69.97;102202.28;5096544;28;20389;-79
2021/05/09 08:12:10;;;;;;;21.83;20.40;;;;;;;17.38;66.85;102195.13;5095272;28;20408;-79
2021/05/09 08:14:37;;;;;;;23.48;22.08;;;;;;;17.40;64.05;102198.44;5096406;28;20062;-80
2021/05/09 08:17:03;;;;;;;23.67;22.17;;;;;;;17.34;60.65;102199.28;5096078;28;20047;-79
2021/05/09 08:19:29;;;;;;;23.15;21.65;;;;;;;16.98;58.04;102207.91;5096419;28;20117;-80
2021/05/09 08:21:56;;;;;;;22.30;20.88;;;;;;;17.30;47.92;102206.09;5096332;28;20044;-80
2021/05/09 08:24:22;;;;;;;22.60;21.10;;;;;;;16.91;47.25;102203.41;5095916;28;20043;-79
2021/05/09 08:26:48;;;;;;;22.10;20.70;;;;;;;16.73;47.23;102192.47;5097012;28;20434;-80
2021/05/09 08:29:16;;;;;;;25.58;24.27;;;;;;;17.36;100.00;102194.50;5096177;28;20058;-79
2021/05/09 08:31:42;;;;;;;28.33;26.92;;;;;;;17.37;66.88;102188.13;5096072;28;20109;-79
2021/05/09 08:34:08;;;;;;;23.40;22.00;;;;;;;17.46;64.04;102194.88;5096974;28;20055;-79
2021/05/09 08:36:34;;;;;;;24.42;23.13;;;;;;;17.83;66.41;102198.56;5095772;28;20048;-80
2021/05/09 08:39:01;;;;;;;29.63;27.92;;;;;;;17.62;49.64;102193.53;5095928;28;20040;-80
2021/05/09 08:41:27;;;;;;;26.17;24.58;;;;;;;18.07;59.29;102196.94;5095598;28;20044;-79
2021/05/09 08:43:53;;;;;;;27.13;25.60;;;;;;;17.76;46.19;102196.94;5095931;28;20435;-80
2021/05/09 08:46:22;;;;;;;27.55;25.95;;;;;;;17.84;48.33;102197.53;5095816;28;20048;-79
2021/05/09 08:48:50;;;;;;;26.00;24.48;;;;;;;18.08;50.17;102192.38;5095468;28;20044;-79
2021/05/09 08:51:18;;;;;;;25.80;24.13;;;;;;;18.24;46.14;102191.00;5095673;28;20363;-79
2021/05/09 08:53:46;;;;;;;25.92;24.25;;;;;;;18.37;58.95;102192.75;5095580;28;20044;-80
2021/05/09 08:56:13;;;;;;;28.17;26.67;;;;;;;18.26;57.62;102196.97;5095498;28;20078;-79
2021/05/09 08:58:39;;;;;;;30.02;28.33;;;;;;;18.27;41.43;102185.16;5095451;28;20043;-80
2021/05/09 09:01:05;;;;;;;28.60;27.08;;;;;;;18.92;47.29;102190.09;5095427;28;20125;-80
2021/05/09 09:03:34;;;;;;;26.85;25.30;;;;;;;18.40;82.00;102184.25;5095565;28;20055;-80
2021/05/09 09:06:03;;;;;;;27.00;25.40;;;;;;;17.96;38.27;102191.44;5095412;28;20059;-79
2021/05/09 09:08:48;;;;;;;27.33;25.42;;;;;;;18.51;43.41;102189.69;5095517;28;20087;-79
2021/05/09 09:11:14;;;;;;;27.35;25.75;;;;;;;18.47;39.33;102184.97;5094758;28;20059;-80
2021/05/09 09:13:40;;;;;;;27.33;25.83;;;;;;;18.76;45.24;102184.28;5094909;28;20051;-79
2021/05/09 09:16:07;;;;;;;26.08;24.48;;;;;;;18.89;44.78;102182.47;5095188;28;20421;-80
2021/05/09 09:18:36;;;;;;;25.02;23.42;;;;;;;18.72;62.92;102168.75;5095063;28;20067;-79
2021/05/09 09:21:26;;;;;;;27.50;25.58;;;;;;;18.70;55.35;102174.38;5095520;28;20415;-79
2021/05/09 09:23:54;;;;;;;24.17;22.67;;;;;;;18.96;42.22;102175.13;5094691;28;20492;-80
2021/05/09 09:26:29;;;;;;;22.92;21.52;;;;;;;18.62;42.65;102160.41;5094553;28;20052;-79
2021/05/09 09:28:55;;;;;;;23.08;21.42;;;;;;;19.16;38.92;102169.50;5094779;28;20048;-79
2021/05/09 09:31:42;;;;;;;21.67;20.15;;;;;;;18.79;34.68;102174.94;5095119;28;20055;-79
2021/05/09 09:34:10;;;;;;;22.55;21.02;;;;;;;18.81;34.16;102174.69;5094896;28;20109;-79
2021/05/09 09:36:37;;;;;;;23.45;22.00;;;;;;;18.70;41.59;102168.19;5094658;28;20101;-80
2021/05/09 09:39:05;;;;;;;22.88;21.23;;;;;;;18.41;44.94;102169.72;5094640;28;20424;-79
2021/05/09 09:41:31;;;;;;;24.55;22.90;;;;;;;18.68;36.02;102172.97;5094703;28;20075;-79
2021/05/09 09:44:06;;;;;;;24.10;22.60;;;;;;;18.73;41.35;102162.38;5094703;28;20396;-79
2021/05/09 09:46:35;;;;;;;23.70;22.20;;;;;;;19.05;40.48;102165.69;5094442;28;20499;-79
2021/05/09 09:49:04;;;;;;;24.30;22.70;;;;;;;18.72;35.99;102158.00;5094326;28;20048;-79
2021/05/09 09:51:48;;;;;;;23.20;21.35;;;;;;;19.57;37.93;102162.47;5094260;28;20403;-79
2021/05/09 09:54:32;;;;;;;23.13;21.73;;;;;;;19.36;35.18;102161.13;5094452;28;20052;-79
2021/05/09 09:56:59;;;;;;;24.00;22.33;;;;;;;19.32;35.44;102157.25;5094693;28;20040;-79
2021/05/09 09:59:26;;;;;;;21.10;19.75;;;;;;;18.65;47.12;102163.47;5094080;28;20440;-79
2021/05/09 10:01:53;;;;;;;22.20;20.60;;;;;;;19.73;37.11;102152.91;5094021;28;20055;-80
2021/05/09 10:04:20;;;;;;;21.75;20.25;;;;;;;19.93;31.36;102156.09;5094038;28;20055;-79
2021/05/09 10:06:47;;;;;;;21.30;19.77;;;;;;;19.95;34.34;102151.31;5094013;28;20040;-80
2021/05/09 10:09:13;;;;;;;24.45;23.05;;;;;;;19.65;31.74;102151.38;5094224;28;20048;-79
2021/05/09 10:11:39;;;;;;;22.58;21.17;;;;;;;19.09;33.63;102147.19;5093895;28;20060;-79
2021/05/09 10:14:07;;;;;;;25.02;23.58;;;;;;;19.81;31.78;102150.69;5094223;28;20059;-80
2021/05/09 10:16:35;;;;;;;22.10;20.65;;;;;;;19.31;30.45;102147.53;5094292;28;20048;-79
2021/05/09 10:19:03;;;;;;;21.38;19.88;;;;;;;20.04;35.78;102154.47;5093622;28;20048;-79
2021/05/09 10:21:30;;;;;;;21.52;20.23;;;;;;;21.13;32.53;102145.69;5093902;28;20048;-79
2021/05/09 10:24:12;;;;;;;23.42;21.42;;;;;;;20.22;35.47;102142.75;5094092;28;20118;-80
2021/05/09 10:26:53;;;;;;;21.83;20.45;;;;;;;19.58;36.19;102142.56;5094013;28;20109;-80
2021/05/09 10:29:48;;;;;;;22.15;20.67;;;;;;;19.91;38.37;102142.06;5094101;28;20112;-79
2021/05/09 10:32:50;;;;;;;21.83;20.30;;;;;;;19.85;41.45;102143.00;5093590;28;20047;-80
2021/05/09 10:35:17;;;;;;;21.98;20.67;;;;;;;20.16;32.43;102146.38;5093537;28;20385;-80
2021/05/09 10:38:06;;;;;;;22.10;20.70;;;;;;;19.67;30.76;102138.50;5093822;28;20063;-79
2021/05/09 10:40:35;;;;;;;21.30;19.98;;;;;;;20.32;29.17;102141.06;5093750;28;20044;-80
2021/05/09 10:43:41;;;;;;;20.48;19.17;;;;;;;20.57;33.09;102140.84;5093709;28;20044;-80
2021/05/09 10:46:08;;;;;;;20.88;19.48;;;;;;;20.80;29.41;102139.13;5093946;28;20052;-79
2021/05/09 10:48:36;;;;;;;20.83;19.42;;;;;;;19.90;31.73;102137.69;5093455;28;20051;-80
2021/05/09 10:51:30;;;;;;;20.20;18.90;;;;;;;20.68;29.68;102135.66;5093405;28;20040;-79
2021/05/09 10:53:57;;;;;;;21.58;20.17;;;;;;;20.68;30.24;102133.75;5093562;28;20108;-79
2021/05/09 10:56:35;;;;;;;21.08;19.67;;;;;;;20.51;31.68;102127.44;5093571;28;20055;-79
2021/05/09 10:59:01;;;;;;;23.73;22.13;;;;;;;19.45;31.09;102111.25;5093613;28;20483;-79
2021/05/09 11:01:29;;;;;;;22.50;21.08;;;;;;;19.82;31.60;102106.53;5093318;28;20052;-80
2021/05/09 11:03:57;;;;;;;23.10;21.60;;;;;;;21.10;33.79;102116.47;5097129;28;20048;-80
2021/05/09 11:06:48;;;;;;;23.05;21.65;;;;;;;20.93;31.94;102114.53;5097693;28;20060;-79
2021/05/09 11:09:33;;;;;;;22.77;21.48;;;;;;;21.80;34.35;102104.41;5097841;28;20055;-79
2021/05/09 11:12:02;;;;;;;23.35;21.95;;;;;;;20.51;35.29;102100.44;5096759;28;20075;-79